createdAt,value
2023-12-27T00:00:33.479Z,6.396
2023-12-27T00:01:34.311Z,6.425
2023-12-27T00:02:34.750Z,6.374
2023-12-27T00:04:34.141Z,6.321
2023-12-27T00:05:33.389Z,6.308
2023-12-27T00:06:34.010Z,6.244
2023-12-27T00:07:33.309Z,6.302
2023-12-27T00:09:33.523Z,6.220
2023-12-27T00:10:33.737Z,6.254
2023-12-27T00:11:33.709Z,6.249
2023-12-27T00:12:34.197Z,6.281
2023-12-27T00:13:33.300Z,6.292
2023-12-27T00:14:33.134Z,6.260
2023-12-27T00:15:34.466Z,6.257
2023-12-27T00:16:33.515Z,6.188
2023-12-27T00:19:34.221Z,6.252
2023-12-27T00:20:33.546Z,6.236
2023-12-27T00:21:33.462Z,6.196
2023-12-27T00:22:33.542Z,6.220
2023-12-27T00:23:33.562Z,6.244
2023-12-27T00:24:33.745Z,6.166
2023-12-27T00:25:34.048Z,6.126
2023-12-27T00:26:33.975Z,6.137
2023-12-27T00:27:34.168Z,6.185
2023-12-27T00:28:33.322Z,6.158
2023-12-27T00:29:33.165Z,6.177
2023-12-27T00:30:34.419Z,6.115
2023-12-27T00:31:33.558Z,6.153
2023-12-27T00:32:34.082Z,6.131
2023-12-27T00:33:34.053Z,6.105
2023-12-27T00:34:34.416Z,6.147
2023-12-27T00:35:33.814Z,6.134
2023-12-27T00:36:35.021Z,6.172
2023-12-27T00:37:33.285Z,6.169
2023-12-27T00:38:33.124Z,6.198
2023-12-27T00:39:34.343Z,6.172
2023-12-27T00:40:33.462Z,6.198
2023-12-27T00:41:33.451Z,6.196
2023-12-27T00:42:34.189Z,6.230
2023-12-27T00:43:33.455Z,6.233
2023-12-27T00:44:33.430Z,6.257
2023-12-27T00:45:33.592Z,6.265
2023-12-27T00:46:33.760Z,6.292
2023-12-27T00:47:34.117Z,6.244
2023-12-27T00:48:33.420Z,6.260
2023-12-27T00:49:34.280Z,6.284
2023-12-27T00:50:33.448Z,6.318
2023-12-27T00:51:33.571Z,6.292
2023-12-27T00:52:33.730Z,6.292
2023-12-27T00:53:33.563Z,6.265
2023-12-27T00:54:33.564Z,6.270
2023-12-27T00:55:34.176Z,6.220
2023-12-27T00:56:33.229Z,6.193
2023-12-27T00:57:33.208Z,6.190
2023-12-27T00:58:33.256Z,6.134
2023-12-27T00:59:34.118Z,6.070
2023-12-27T01:00:34.579Z,6.070
2023-12-27T01:01:33.570Z,6.046
2023-12-27T01:02:33.367Z,5.995
2023-12-27T01:03:33.568Z,5.987
2023-12-27T01:04:34.596Z,5.926
2023-12-27T01:05:33.741Z,5.880
2023-12-27T01:06:33.771Z,5.843
2023-12-27T01:07:33.951Z,5.790
2023-12-27T01:08:33.780Z,5.699
2023-12-27T01:09:34.303Z,5.718
2023-12-27T01:11:33.461Z,5.608
2023-12-27T01:12:34.097Z,5.523
2023-12-27T01:13:33.161Z,5.469
2023-12-27T01:14:34.080Z,5.432
2023-12-27T01:15:34.257Z,5.418
2023-12-27T01:17:33.538Z,5.501
2023-12-27T01:18:34.447Z,5.435
2023-12-27T01:19:34.336Z,5.493
2023-12-27T01:20:33.419Z,5.499
2023-12-27T01:21:33.675Z,5.485
2023-12-27T01:22:33.964Z,5.515
2023-12-27T01:25:33.193Z,5.512
2023-12-27T01:26:34.142Z,5.608
2023-12-27T01:27:34.344Z,5.651
2023-12-27T01:28:33.472Z,5.688
2023-12-27T01:29:33.297Z,5.680
2023-12-27T01:30:33.550Z,5.672
2023-12-27T01:31:33.979Z,5.656
2023-12-27T01:32:33.475Z,5.688
2023-12-27T01:33:34.361Z,5.651
2023-12-27T01:34:38.635Z,5.678
2023-12-27T01:35:34.055Z,5.686
2023-12-27T01:36:34.146Z,5.627
2023-12-27T01:39:33.991Z,5.600
2023-12-27T01:40:33.224Z,5.568
2023-12-27T01:41:34.162Z,5.587
2023-12-27T01:42:34.223Z,5.525
2023-12-27T01:43:33.296Z,5.485
2023-12-27T01:44:33.105Z,5.467
2023-12-27T01:45:34.399Z,5.469
2023-12-27T01:47:33.606Z,5.448
2023-12-27T01:48:34.689Z,5.426
2023-12-27T01:49:33.700Z,5.488
2023-12-27T01:50:33.935Z,5.533
2023-12-27T01:51:34.339Z,5.491
2023-12-27T01:52:33.574Z,5.560
2023-12-27T01:54:33.675Z,5.555
2023-12-27T01:55:33.783Z,5.600
2023-12-27T01:56:33.742Z,5.605
2023-12-27T01:57:34.012Z,5.651
2023-12-27T01:58:33.589Z,5.680
2023-12-27T01:59:33.469Z,5.718
2023-12-27T02:00:33.831Z,5.653
2023-12-27T02:01:34.297Z,5.576
2023-12-27T02:02:33.226Z,5.552
2023-12-27T02:03:34.557Z,5.624
2023-12-27T02:04:34.157Z,5.568
2023-12-27T02:05:33.452Z,5.597
2023-12-27T02:06:33.779Z,5.597
2023-12-27T02:07:38.751Z,5.603
2023-12-27T02:08:33.562Z,5.640
2023-12-27T02:09:33.825Z,5.637
2023-12-27T02:10:33.954Z,5.608
2023-12-27T02:12:34.030Z,5.597
2023-12-27T02:13:33.163Z,5.549
2023-12-27T02:14:34.109Z,5.539
2023-12-27T02:15:34.282Z,5.541
2023-12-27T02:16:33.583Z,5.584
2023-12-27T02:17:33.810Z,5.581
2023-12-27T02:18:34.612Z,5.611
2023-12-27T02:19:34.306Z,5.589
2023-12-27T02:20:33.387Z,5.525
2023-12-27T02:21:33.640Z,5.507
2023-12-27T02:22:33.772Z,5.483
2023-12-27T02:23:33.713Z,5.485
2023-12-27T02:24:33.949Z,5.568
2023-12-27T02:25:33.994Z,5.555
2023-12-27T02:26:33.923Z,5.549
2023-12-27T02:27:34.112Z,5.608
2023-12-27T02:28:34.286Z,5.661
2023-12-27T02:29:33.311Z,5.659
2023-12-27T02:30:33.508Z,5.672
2023-12-27T02:31:34.378Z,5.694
2023-12-27T02:33:35.159Z,5.822
2023-12-27T02:34:34.081Z,5.875
2023-12-27T02:35:34.121Z,5.867
2023-12-27T02:36:33.592Z,5.851
2023-12-27T02:37:33.651Z,5.827
2023-12-27T02:38:33.949Z,5.830
2023-12-27T02:39:34.245Z,5.819
2023-12-27T02:40:33.265Z,5.830
2023-12-27T02:41:33.363Z,5.800
2023-12-27T02:42:33.352Z,5.792
2023-12-27T02:43:33.382Z,5.763
2023-12-27T02:44:33.280Z,5.803
2023-12-27T02:45:33.410Z,5.742
2023-12-27T02:46:33.423Z,5.720
2023-12-27T02:47:33.446Z,5.704
2023-12-27T02:48:34.344Z,5.715
2023-12-27T02:49:34.459Z,5.750
2023-12-27T02:50:33.379Z,5.779
2023-12-27T02:51:33.809Z,5.790
2023-12-27T02:53:33.571Z,5.752
2023-12-27T02:54:33.938Z,5.715
2023-12-27T02:56:33.739Z,5.686
2023-12-27T02:57:33.707Z,5.672
2023-12-27T02:58:33.567Z,5.637
2023-12-27T02:59:33.549Z,5.627
2023-12-27T03:00:33.793Z,5.637
2023-12-27T03:01:33.277Z,5.619
2023-12-27T03:02:33.505Z,5.595
2023-12-27T03:03:34.424Z,5.608
2023-12-27T03:04:34.188Z,5.648
2023-12-27T03:05:33.664Z,5.613
2023-12-27T03:06:34.245Z,5.608
2023-12-27T03:07:33.538Z,5.651
2023-12-27T03:08:33.495Z,5.619
2023-12-27T03:09:33.544Z,5.611
2023-12-27T03:10:33.563Z,5.560
2023-12-27T03:11:33.443Z,5.565
2023-12-27T03:12:33.602Z,5.533
2023-12-27T03:13:33.631Z,5.533
2023-12-27T03:14:33.531Z,5.549
2023-12-27T03:15:33.645Z,5.605
2023-12-27T03:16:33.875Z,5.589
2023-12-27T03:17:34.022Z,5.629
2023-12-27T03:18:34.676Z,5.616
2023-12-27T03:19:34.298Z,5.595
2023-12-27T03:20:33.433Z,5.568
2023-12-27T03:21:33.432Z,5.560
2023-12-27T03:22:33.408Z,5.552
2023-12-27T03:23:33.246Z,5.512
2023-12-27T03:24:34.512Z,5.515
2023-12-27T03:25:33.561Z,5.507
2023-12-27T03:26:33.391Z,5.496
2023-12-27T03:27:33.409Z,5.523
2023-12-27T03:28:33.471Z,5.576
2023-12-27T03:29:33.295Z,5.552
2023-12-27T03:30:33.626Z,5.544
2023-12-27T03:31:34.414Z,5.587
2023-12-27T03:32:33.607Z,5.576
2023-12-27T03:33:34.618Z,5.571
2023-12-27T03:34:35.008Z,5.555
2023-12-27T03:35:33.294Z,5.531
2023-12-27T03:36:33.381Z,5.557
2023-12-27T03:37:33.703Z,5.555
2023-12-27T03:39:33.957Z,5.563
2023-12-27T03:40:33.266Z,5.600
2023-12-27T03:41:33.320Z,5.576
2023-12-27T03:42:33.597Z,5.605
2023-12-27T03:43:33.887Z,5.592
2023-12-27T03:44:33.852Z,5.616
2023-12-27T03:45:34.030Z,5.571
2023-12-27T03:46:33.494Z,5.613
2023-12-27T03:47:33.712Z,5.613
2023-12-27T03:48:34.607Z,5.571
2023-12-27T03:49:34.582Z,5.573
2023-12-27T03:50:33.726Z,5.597
2023-12-27T03:51:34.002Z,5.587
2023-12-27T03:52:33.288Z,5.565
2023-12-27T03:53:33.939Z,5.539
2023-12-27T03:54:34.294Z,5.517
2023-12-27T03:55:33.570Z,5.541
2023-12-27T03:57:33.741Z,5.533
2023-12-27T03:58:33.734Z,5.563
2023-12-27T03:59:33.510Z,5.568
2023-12-27T04:00:33.722Z,5.541
2023-12-27T04:01:34.045Z,5.512
2023-12-27T04:02:34.156Z,5.509
2023-12-27T04:03:36.319Z,5.496
2023-12-27T04:04:33.426Z,5.483
2023-12-27T04:05:33.644Z,5.512
2023-12-27T04:06:33.861Z,5.549
2023-12-27T04:07:33.964Z,5.448
2023-12-27T04:09:33.765Z,5.499
2023-12-27T04:10:34.007Z,5.459
2023-12-27T04:11:33.824Z,5.448
2023-12-27T04:12:34.245Z,5.432
2023-12-27T04:13:33.931Z,5.400
2023-12-27T04:14:33.821Z,5.378
2023-12-27T04:15:33.971Z,5.349
2023-12-27T04:16:33.361Z,5.322
2023-12-27T04:17:33.689Z,5.240
2023-12-27T04:18:34.777Z,5.280
2023-12-27T04:19:33.549Z,5.280
2023-12-27T04:20:33.928Z,5.290
2023-12-27T04:21:34.330Z,5.320
2023-12-27T04:22:33.452Z,5.349
2023-12-27T04:23:33.428Z,5.325
2023-12-27T04:24:33.796Z,5.360
2023-12-27T04:25:33.879Z,5.378
2023-12-27T04:26:33.841Z,5.336
2023-12-27T04:27:34.088Z,5.330
2023-12-27T04:30:34.384Z,5.234
2023-12-27T04:31:33.524Z,5.197
2023-12-27T04:32:33.338Z,5.117
2023-12-27T04:33:33.801Z,5.074
2023-12-27T04:34:34.521Z,5.079
2023-12-27T04:35:33.694Z,5.061
2023-12-27T04:36:33.589Z,5.034
2023-12-27T04:37:33.830Z,5.063
2023-12-27T04:38:33.912Z,5.082
2023-12-27T04:39:33.942Z,5.055
2023-12-27T04:40:33.929Z,4.975
2023-12-27T04:41:33.733Z,4.957
2023-12-27T04:42:33.969Z,4.911
2023-12-27T04:43:34.030Z,4.855
2023-12-27T04:44:33.826Z,4.863
2023-12-27T04:45:34.192Z,4.839
2023-12-27T04:46:33.341Z,4.828
2023-12-27T04:47:33.472Z,4.844
2023-12-27T04:48:34.061Z,4.866
2023-12-27T04:49:34.526Z,4.762
2023-12-27T04:50:33.496Z,4.679
2023-12-27T04:51:36.619Z,4.689
2023-12-27T04:52:33.937Z,4.636
2023-12-27T04:53:33.841Z,4.609
2023-12-27T04:54:34.416Z,4.535
2023-12-27T04:56:33.471Z,4.543
2023-12-27T04:57:33.660Z,4.519
2023-12-27T04:58:33.899Z,4.548
2023-12-27T04:59:33.839Z,4.393
2023-12-27T05:00:34.425Z,4.457
2023-12-27T05:01:33.826Z,4.508
2023-12-27T05:02:33.800Z,4.500
2023-12-27T05:03:33.860Z,4.460
2023-12-27T05:04:33.640Z,4.425
2023-12-27T05:05:33.811Z,4.412
2023-12-27T05:06:33.643Z,4.401
2023-12-27T05:07:33.649Z,4.401
2023-12-27T05:08:33.519Z,4.385
2023-12-27T05:09:33.466Z,4.404
2023-12-27T05:12:33.978Z,4.358
2023-12-27T05:13:34.051Z,4.321
2023-12-27T05:14:33.895Z,4.268
2023-12-27T05:15:34.017Z,4.308
2023-12-27T05:16:33.063Z,4.286
2023-12-27T05:17:34.178Z,4.310
2023-12-27T05:18:33.496Z,4.313
2023-12-27T05:19:34.080Z,4.270
2023-12-27T05:20:34.078Z,4.265
2023-12-27T05:21:34.300Z,4.236
2023-12-27T05:22:33.386Z,4.211
2023-12-27T05:23:33.217Z,4.198
2023-12-27T05:24:34.165Z,4.115
2023-12-27T05:25:33.437Z,4.155
2023-12-27T05:26:33.386Z,4.187
2023-12-27T05:27:33.501Z,4.225
2023-12-27T05:28:33.627Z,4.214
2023-12-27T05:29:35.809Z,4.211
2023-12-27T05:30:34.339Z,4.203
2023-12-27T05:31:33.943Z,4.225
2023-12-27T05:33:34.330Z,4.209
2023-12-27T05:34:34.548Z,4.193
2023-12-27T05:35:33.822Z,4.147
2023-12-27T05:36:34.134Z,4.169
2023-12-27T05:37:33.386Z,4.171
2023-12-27T05:38:33.447Z,4.153
2023-12-27T05:39:33.745Z,4.115
2023-12-27T05:40:33.901Z,4.073
2023-12-27T05:41:33.949Z,4.054
2023-12-27T05:42:34.358Z,4.014
2023-12-27T05:43:33.461Z,3.995
2023-12-27T05:44:33.351Z,4.089
2023-12-27T05:46:33.204Z,4.054
2023-12-27T05:47:33.996Z,4.038
2023-12-27T05:48:34.622Z,3.974
2023-12-27T05:49:34.191Z,3.966
2023-12-27T05:50:33.475Z,3.985
2023-12-27T05:51:33.652Z,3.920
2023-12-27T05:52:33.829Z,3.926
2023-12-27T05:53:33.694Z,3.894
2023-12-27T05:54:34.288Z,3.792
2023-12-27T05:55:33.343Z,3.742
2023-12-27T05:56:33.147Z,3.848
2023-12-27T05:57:34.153Z,3.766
2023-12-27T05:58:33.192Z,3.720
2023-12-27T06:00:33.378Z,3.608
2023-12-27T06:01:33.999Z,3.600
2023-12-27T06:02:34.021Z,3.587
2023-12-27T06:03:34.436Z,3.488
2023-12-27T06:04:33.694Z,3.576
2023-12-27T06:05:34.525Z,3.531
2023-12-27T06:06:33.776Z,3.552
2023-12-27T06:07:33.941Z,3.472
2023-12-27T06:08:33.950Z,3.499
2023-12-27T06:09:33.971Z,3.539
2023-12-27T06:10:33.988Z,3.584
2023-12-27T06:11:33.927Z,3.520
2023-12-27T06:12:34.094Z,3.525
2023-12-27T06:13:34.145Z,3.557
2023-12-27T06:14:34.053Z,3.472
2023-12-27T06:15:34.177Z,3.416
2023-12-27T06:16:33.294Z,3.378
2023-12-27T06:19:35.190Z,3.474
2023-12-27T06:20:33.383Z,3.426
2023-12-27T06:21:33.291Z,3.354
2023-12-27T06:22:33.358Z,3.474
2023-12-27T06:23:33.228Z,3.413
2023-12-27T06:24:33.286Z,3.426
2023-12-27T06:25:33.358Z,3.360
2023-12-27T06:26:33.220Z,3.376
2023-12-27T06:27:33.281Z,3.386
2023-12-27T06:28:33.407Z,3.434
2023-12-27T06:29:33.218Z,3.565
2023-12-27T06:30:34.843Z,3.632
2023-12-27T06:31:34.577Z,3.637
2023-12-27T06:32:33.824Z,3.701
2023-12-27T06:33:34.705Z,3.712
2023-12-27T06:34:34.258Z,3.782
2023-12-27T06:35:33.402Z,3.784
2023-12-27T06:36:33.351Z,3.806
2023-12-27T06:37:34.267Z,3.840
2023-12-27T06:38:33.250Z,3.859
2023-12-27T06:39:33.224Z,3.896
2023-12-27T06:40:33.392Z,3.880
2023-12-27T06:41:33.449Z,3.904
2023-12-27T06:42:33.649Z,3.912
2023-12-27T06:43:37.182Z,3.936
2023-12-27T06:44:34.083Z,3.934
2023-12-27T06:45:34.145Z,3.968
2023-12-27T06:46:33.385Z,3.974
2023-12-27T06:47:33.410Z,3.947
2023-12-27T06:48:34.409Z,3.926
2023-12-27T06:49:34.779Z,3.944
2023-12-27T06:50:34.128Z,3.968
2023-12-27T06:51:34.324Z,3.968
2023-12-27T06:52:33.545Z,3.968
2023-12-27T06:53:33.496Z,3.990
2023-12-27T06:54:33.723Z,4.022
2023-12-27T06:55:34.022Z,4.035
2023-12-27T06:56:33.968Z,4.062
2023-12-27T06:57:34.103Z,4.065
2023-12-27T06:58:33.400Z,4.067
2023-12-27T06:59:33.178Z,4.067
2023-12-27T07:00:34.228Z,4.073
2023-12-27T07:01:33.497Z,4.118
2023-12-27T07:02:33.727Z,4.115
2023-12-27T07:03:34.377Z,4.091
2023-12-27T07:04:33.613Z,4.078
2023-12-27T07:06:33.400Z,4.118
2023-12-27T07:07:33.799Z,4.123
2023-12-27T07:09:33.834Z,4.115
2023-12-27T07:10:33.922Z,4.129
2023-12-27T07:11:33.774Z,4.145
2023-12-27T07:12:33.757Z,4.177
2023-12-27T07:13:33.949Z,4.182
2023-12-27T07:14:33.814Z,4.177
2023-12-27T07:15:34.090Z,4.195
2023-12-27T07:16:33.102Z,4.217
2023-12-27T07:17:34.255Z,4.262
2023-12-27T07:18:33.946Z,4.270
2023-12-27T07:19:34.729Z,4.276
2023-12-27T07:20:34.071Z,4.281
2023-12-27T07:21:34.144Z,4.246
2023-12-27T07:22:37.002Z,4.270
2023-12-27T07:24:34.312Z,4.308
2023-12-27T07:25:33.447Z,4.310
2023-12-27T07:26:33.333Z,4.321
2023-12-27T07:27:33.564Z,4.316
2023-12-27T07:28:33.694Z,4.316
2023-12-27T07:29:33.633Z,4.366
2023-12-27T07:30:33.986Z,4.385
2023-12-27T07:31:33.501Z,4.460
2023-12-27T07:32:33.756Z,4.449
2023-12-27T07:33:34.265Z,4.385
2023-12-27T07:34:34.062Z,4.380
2023-12-27T07:35:33.321Z,4.398
2023-12-27T07:36:33.235Z,4.350
2023-12-27T07:37:33.204Z,4.321
2023-12-27T07:38:34.017Z,4.324
2023-12-27T07:39:34.262Z,4.324
2023-12-27T07:40:33.476Z,4.324
2023-12-27T07:41:33.318Z,4.246
2023-12-27T07:42:33.249Z,4.260
2023-12-27T07:45:34.008Z,4.166
2023-12-27T07:46:33.146Z,4.150
2023-12-27T07:47:34.187Z,4.118
2023-12-27T07:48:33.505Z,4.150
2023-12-27T07:49:34.410Z,4.174
2023-12-27T07:51:33.819Z,4.155
2023-12-27T07:52:34.082Z,4.145
2023-12-27T07:53:34.178Z,4.118
2023-12-27T07:54:33.327Z,4.129
2023-12-27T07:55:33.401Z,4.115
2023-12-27T07:56:33.371Z,4.110
2023-12-27T07:57:33.600Z,4.059
2023-12-27T07:58:33.700Z,4.035
2023-12-27T07:59:33.761Z,4.025
2023-12-27T08:00:34.007Z,4.051
2023-12-27T08:01:34.935Z,4.006
2023-12-27T08:02:34.075Z,4.009
2023-12-27T08:03:34.312Z,3.995
2023-12-27T08:06:36.531Z,4.043
2023-12-27T08:07:34.028Z,4.043
2023-12-27T08:09:34.217Z,4.169
2023-12-27T08:11:33.151Z,4.230
2023-12-27T08:12:34.226Z,4.284
2023-12-27T08:13:33.703Z,4.342
2023-12-27T08:14:33.590Z,4.374
2023-12-27T08:15:33.603Z,4.425
2023-12-27T08:16:33.694Z,4.463
2023-12-27T08:19:33.855Z,4.585
2023-12-27T08:20:34.997Z,4.601
2023-12-27T08:21:34.091Z,4.700
2023-12-27T08:22:34.032Z,4.794
2023-12-27T08:23:33.921Z,4.764
2023-12-27T08:24:33.877Z,4.831
2023-12-27T08:25:34.038Z,4.828
2023-12-27T08:26:33.852Z,4.834
2023-12-27T08:27:34.075Z,4.866
2023-12-27T08:28:33.204Z,4.876
2023-12-27T08:29:34.107Z,4.826
2023-12-27T08:30:34.612Z,4.892
2023-12-27T08:31:34.103Z,4.839
2023-12-27T08:32:33.393Z,4.892
2023-12-27T08:33:33.748Z,4.940
2023-12-27T08:34:34.477Z,4.957
2023-12-27T08:35:33.660Z,4.991
2023-12-27T08:36:33.840Z,4.997
2023-12-27T08:37:33.201Z,4.999
2023-12-27T08:38:33.652Z,5.034
2023-12-27T08:39:34.058Z,5.018
2023-12-27T08:40:34.176Z,5.119
2023-12-27T08:42:34.197Z,5.189
2023-12-27T08:43:33.428Z,5.208
2023-12-27T08:47:33.544Z,5.186
2023-12-27T08:48:34.610Z,5.277
2023-12-27T08:49:33.652Z,5.285
2023-12-27T08:50:33.118Z,5.277
2023-12-27T08:51:34.250Z,5.272
2023-12-27T08:52:33.150Z,5.330
2023-12-27T08:53:34.002Z,5.373
2023-12-27T08:54:33.977Z,5.368
2023-12-27T08:55:34.117Z,5.413
2023-12-27T08:56:33.997Z,5.440
2023-12-27T08:57:37.827Z,5.459
2023-12-27T09:00:33.656Z,5.637
2023-12-27T09:01:34.033Z,5.672
2023-12-27T09:02:34.008Z,5.653
2023-12-27T09:03:34.506Z,5.699
2023-12-27T09:05:33.421Z,5.848
2023-12-27T09:06:34.043Z,5.880
2023-12-27T09:07:33.354Z,6.014
2023-12-27T09:10:33.705Z,6.105
2023-12-27T09:11:45.541Z,6.089
2023-12-27T09:12:33.709Z,6.180
2023-12-27T09:13:33.656Z,6.142
2023-12-27T09:14:33.596Z,6.078
2023-12-27T09:15:33.787Z,6.070
2023-12-27T09:16:33.933Z,6.059
2023-12-27T09:17:34.085Z,6.196
2023-12-27T09:18:33.717Z,6.289
2023-12-27T09:19:34.530Z,6.433
2023-12-27T09:20:33.733Z,6.358
2023-12-27T09:21:34.395Z,6.366
2023-12-27T09:22:33.856Z,6.353
2023-12-27T09:23:33.975Z,6.404
2023-12-27T09:24:34.014Z,6.407
2023-12-27T09:25:34.165Z,6.334
2023-12-27T09:26:33.414Z,6.457
2023-12-27T09:27:33.334Z,6.473
2023-12-27T09:28:33.363Z,6.521
2023-12-27T09:29:33.176Z,6.535
2023-12-27T09:30:34.603Z,6.553
2023-12-27T09:31:34.380Z,6.612
2023-12-27T09:32:34.455Z,6.580
2023-12-27T09:34:33.940Z,6.623
2023-12-27T09:35:33.265Z,6.625
2023-12-27T09:36:33.372Z,6.759
2023-12-27T09:37:33.442Z,6.772
2023-12-27T09:38:33.440Z,6.770
2023-12-27T09:39:33.620Z,6.876
2023-12-27T09:40:33.571Z,6.989
2023-12-27T09:41:33.846Z,7.125
2023-12-27T09:42:34.198Z,7.085
2023-12-27T09:43:33.490Z,7.200
2023-12-27T09:44:33.397Z,7.261
2023-12-27T09:45:33.482Z,7.205
2023-12-27T09:46:33.498Z,7.274
2023-12-27T09:47:33.666Z,7.440
2023-12-27T09:48:34.423Z,7.520
2023-12-27T09:49:34.290Z,7.592
2023-12-27T09:50:33.707Z,7.734
2023-12-27T09:51:34.030Z,7.744
2023-12-27T09:52:33.294Z,7.766
2023-12-27T09:53:33.319Z,7.963
2023-12-27T09:54:33.331Z,7.937
2023-12-27T09:55:33.528Z,8.030
2023-12-27T09:56:33.464Z,8.148
2023-12-27T09:57:33.402Z,8.118
2023-12-27T09:58:33.521Z,8.174
2023-12-27T09:59:33.471Z,8.132
2023-12-27T10:00:33.970Z,8.292
2023-12-27T10:01:33.327Z,8.337
2023-12-27T10:02:33.523Z,8.452
2023-12-27T10:03:33.917Z,8.481
2023-12-27T10:04:33.178Z,8.521
2023-12-27T10:05:34.297Z,8.519
2023-12-27T10:06:33.577Z,8.593
2023-12-27T10:07:33.584Z,8.610
2023-12-27T10:08:33.793Z,8.770
2023-12-27T10:09:33.946Z,8.724
2023-12-27T10:10:34.646Z,8.754
2023-12-27T10:11:33.471Z,8.812
2023-12-27T10:12:33.383Z,8.861
2023-12-27T10:13:33.406Z,8.967
2023-12-27T10:15:34.757Z,8.901
2023-12-27T10:16:33.722Z,8.954
2023-12-27T10:17:33.646Z,8.658
2023-12-27T10:18:34.043Z,8.585
2023-12-27T10:19:33.742Z,8.650
2023-12-27T10:20:33.921Z,8.623
2023-12-27T10:21:34.097Z,8.770
2023-12-27T10:22:33.260Z,8.703
2023-12-27T10:23:34.124Z,8.770
2023-12-27T10:24:33.770Z,8.708
2023-12-27T10:25:34.248Z,8.706
2023-12-27T10:26:33.207Z,8.700
2023-12-27T10:27:34.330Z,8.700
2023-12-27T10:29:33.453Z,8.746
2023-12-27T10:30:33.948Z,8.812
2023-12-27T10:31:33.737Z,8.941
2023-12-27T10:32:34.295Z,8.994
2023-12-27T10:33:36.911Z,8.887
2023-12-27T10:36:34.042Z,9.104
2023-12-27T10:37:33.073Z,9.101
2023-12-27T10:38:34.132Z,9.104
2023-12-27T10:39:33.293Z,9.173
2023-12-27T10:40:33.343Z,9.098
2023-12-27T10:42:33.314Z,9.258
2023-12-27T10:43:33.591Z,9.314
2023-12-27T10:44:33.422Z,9.541
2023-12-27T10:45:33.379Z,9.640
2023-12-27T10:46:33.430Z,9.528
2023-12-27T10:47:33.367Z,9.731
2023-12-27T10:48:34.255Z,9.881
2023-12-27T10:50:33.342Z,10.019
2023-12-27T10:51:35.633Z,9.971
2023-12-27T10:52:33.783Z,10.238
2023-12-27T10:54:33.748Z,10.078
2023-12-27T10:55:33.803Z,10.113
2023-12-27T10:56:33.856Z,10.086
2023-12-27T10:57:36.676Z,10.148
2023-12-27T10:59:33.673Z,10.401
2023-12-27T11:00:33.980Z,10.407
2023-12-27T11:01:33.600Z,10.313
2023-12-27T11:02:34.045Z,10.380
2023-12-27T11:03:37.506Z,10.457
2023-12-27T11:05:33.608Z,10.489
2023-12-27T11:06:34.143Z,10.500
2023-12-27T11:07:33.312Z,10.511
2023-12-27T11:08:33.206Z,10.602
2023-12-27T11:09:33.505Z,10.658
2023-12-27T11:10:33.625Z,10.580
2023-12-27T11:11:33.674Z,10.580
2023-12-27T11:12:33.744Z,10.671
2023-12-27T11:13:33.756Z,10.527
2023-12-27T11:14:33.688Z,10.644
2023-12-27T11:15:34.567Z,10.797
2023-12-27T11:16:33.510Z,10.743
2023-12-27T11:19:34.316Z,10.668
2023-12-27T11:20:33.316Z,10.727
2023-12-27T11:21:35.965Z,10.783
2023-12-27T11:22:33.255Z,10.775
2023-12-27T11:23:34.143Z,10.767
2023-12-27T11:24:34.253Z,10.834
2023-12-27T11:25:33.428Z,10.746
2023-12-27T11:26:33.278Z,10.826
2023-12-27T11:27:36.332Z,10.895
2023-12-27T11:29:33.292Z,10.893
2023-12-27T11:30:33.835Z,10.837
2023-12-27T11:31:34.557Z,10.949
2023-12-27T11:32:33.955Z,10.794
2023-12-27T11:33:39.437Z,10.644
2023-12-27T11:35:34.228Z,10.759
2023-12-27T11:36:33.390Z,10.524
2023-12-27T11:37:33.711Z,10.612
2023-12-27T11:38:33.687Z,10.556
2023-12-27T11:39:33.652Z,10.556
2023-12-27T11:40:34.054Z,10.562
2023-12-27T11:41:33.360Z,10.479
2023-12-27T11:42:33.677Z,10.460
2023-12-27T11:43:33.831Z,10.495
2023-12-27T11:44:33.783Z,10.449
2023-12-27T11:45:33.984Z,10.511
2023-12-27T11:46:34.049Z,10.452
2023-12-27T11:47:34.155Z,10.441
2023-12-27T11:48:33.863Z,10.468
2023-12-27T11:49:33.429Z,10.433
2023-12-27T11:50:33.779Z,10.383
2023-12-27T11:51:34.327Z,10.388
2023-12-27T11:52:33.568Z,10.399
2023-12-27T11:53:33.409Z,10.420
2023-12-27T11:54:33.244Z,10.367
2023-12-27T11:55:33.413Z,10.343
2023-12-27T11:58:33.228Z,10.439
2023-12-27T11:59:34.041Z,10.444
2023-12-27T12:00:33.998Z,10.428
2023-12-27T12:01:34.224Z,10.473
2023-12-27T12:02:34.025Z,10.289
2023-12-27T12:03:33.914Z,10.286
2023-12-27T12:04:34.516Z,10.391
2023-12-27T12:06:34.340Z,10.372
2023-12-27T12:07:33.476Z,10.447
2023-12-27T12:08:33.455Z,10.404
2023-12-27T12:09:33.550Z,10.417
2023-12-27T12:10:33.830Z,10.457
2023-12-27T12:11:33.776Z,10.527
2023-12-27T12:12:34.148Z,10.468
2023-12-27T12:13:33.233Z,10.468
2023-12-27T12:14:34.169Z,10.543
2023-12-27T12:15:34.069Z,10.492
2023-12-27T12:18:34.991Z,10.465
2023-12-27T12:19:33.703Z,10.503
2023-12-27T12:20:33.210Z,10.428
2023-12-27T12:21:34.164Z,10.404
2023-12-27T12:22:33.224Z,10.503
2023-12-27T12:23:33.429Z,10.484
2023-12-27T12:24:33.785Z,10.444
2023-12-27T12:25:33.348Z,10.388
2023-12-27T12:26:35.706Z,10.425
2023-12-27T12:27:34.131Z,10.452
2023-12-27T12:30:34.085Z,10.500
2023-12-27T12:31:34.254Z,10.489
2023-12-27T12:32:33.722Z,10.473
2023-12-27T12:33:34.866Z,10.505
2023-12-27T12:35:33.869Z,10.353
2023-12-27T12:36:33.817Z,10.380
2023-12-27T12:37:33.949Z,10.388
2023-12-27T12:38:33.830Z,10.407
2023-12-27T12:41:33.238Z,10.319
2023-12-27T12:42:34.274Z,10.359
2023-12-27T12:43:33.248Z,10.361
2023-12-27T12:44:36.317Z,10.337
2023-12-27T12:45:33.578Z,10.286
2023-12-27T12:46:33.761Z,10.249
2023-12-27T12:47:33.725Z,10.276
2023-12-27T12:48:34.661Z,10.233
2023-12-27T12:49:33.701Z,10.257
2023-12-27T12:50:34.213Z,10.276
2023-12-27T12:51:33.391Z,10.206
2023-12-27T12:52:33.436Z,10.217
2023-12-27T12:53:33.412Z,10.212
2023-12-27T12:55:33.770Z,10.230
2023-12-27T12:56:33.678Z,10.204
2023-12-27T12:57:33.450Z,10.217
2023-12-27T12:58:33.678Z,10.204
2023-12-27T12:59:34.028Z,10.140
2023-12-27T13:00:33.624Z,10.177
2023-12-27T13:01:34.047Z,10.153
2023-12-27T13:02:33.108Z,10.188
2023-12-27T13:03:33.504Z,10.089
2023-12-27T13:04:33.800Z,10.134
2023-12-27T13:05:34.003Z,10.110
2023-12-27T13:06:33.556Z,10.046
2023-12-27T13:07:33.875Z,9.982
2023-12-27T13:08:33.715Z,10.035
2023-12-27T13:09:33.902Z,10.038
2023-12-27T13:10:33.900Z,9.998
2023-12-27T13:11:33.745Z,9.950
2023-12-27T13:12:33.675Z,9.998
2023-12-27T13:13:33.764Z,9.993
2023-12-27T13:14:33.600Z,9.982
2023-12-27T13:16:33.576Z,10.027
2023-12-27T13:17:34.053Z,10.035
2023-12-27T13:18:33.688Z,9.974
2023-12-27T13:19:34.449Z,9.931
2023-12-27T13:20:33.509Z,9.953
2023-12-27T13:21:33.624Z,9.966
2023-12-27T13:22:33.701Z,9.926
2023-12-27T13:23:33.664Z,9.918
2023-12-27T13:24:33.770Z,9.915
2023-12-27T13:25:34.114Z,9.929
2023-12-27T13:26:34.092Z,9.929
2023-12-27T13:27:34.242Z,9.870
2023-12-27T13:28:33.287Z,9.913
2023-12-27T13:29:33.307Z,9.931
2023-12-27T13:30:33.954Z,9.950
2023-12-27T13:31:34.158Z,9.971
2023-12-27T13:32:33.655Z,9.971
2023-12-27T13:33:35.111Z,9.929
2023-12-27T13:35:33.771Z,9.905
2023-12-27T13:36:34.018Z,9.953
2023-12-27T13:37:34.213Z,9.934
2023-12-27T13:38:33.209Z,9.915
2023-12-27T13:39:33.446Z,9.953
2023-12-27T13:40:33.502Z,9.974
2023-12-27T13:41:33.369Z,9.934
2023-12-27T13:42:33.435Z,9.905
2023-12-27T13:43:33.515Z,9.961
2023-12-27T13:44:33.450Z,9.905
2023-12-27T13:45:33.766Z,9.998
2023-12-27T13:46:33.725Z,9.982
2023-12-27T13:47:33.688Z,9.907
2023-12-27T13:48:34.833Z,9.966
2023-12-27T13:49:33.660Z,9.926
2023-12-27T13:50:33.901Z,9.961
2023-12-27T13:51:33.964Z,9.934
2023-12-27T13:52:34.053Z,9.854
2023-12-27T13:53:33.989Z,9.870
2023-12-27T13:54:40.195Z,9.934
2023-12-27T13:57:34.278Z,9.865
2023-12-27T13:58:33.417Z,9.910
2023-12-27T13:59:33.446Z,9.771
2023-12-27T14:00:34.337Z,9.819
2023-12-27T14:01:34.056Z,9.827
2023-12-27T14:04:34.465Z,9.787
2023-12-27T14:05:33.787Z,9.747
2023-12-27T14:06:34.213Z,9.768
2023-12-27T14:07:33.366Z,9.784
2023-12-27T14:09:34.366Z,9.696
2023-12-27T14:10:33.501Z,9.678